Time;durP1;ratioP1;P1;durP2;ratioP2;P2;SDS_P1;SDS_P2;PMS_P1;PMS_P2;Temp;Humidity;BMP_temperature;BMP_pressure;BME280_temperature;BME280_humidity;BME280_pressure;Samples;Min_cycle;Max_cycle;Signal;HPM_P1;HPM_P2
2021/09/19 00:00:01;;;;;;;12.60;11.27;;;15.40;78.10;;;;;;6249221;28;20938;-81
2021/09/19 00:03:04;;;;;;;12.63;10.77;;;15.60;79.10;;;;;;6248996;28;20423;-81
2021/09/19 00:06:07;;;;;;;11.90;10.70;;;15.50;79.10;;;;;;6249373;28;20450;-80
2021/09/19 00:09:08;;;;;;;12.15;10.95;;;15.40;79.10;;;;;;6249007;28;20438;-79
2021/09/19 00:12:10;;;;;;;12.40;11.30;;;15.40;78.90;;;;;;6248797;28;20437;-79
2021/09/19 00:15:15;;;;;;;13.65;12.30;;;15.40;79.10;;;;;;6248385;28;20441;-80
2021/09/19 00:18:19;;;;;;;13.00;11.82;;;15.40;79.20;;;;;;6249186;28;20769;-79
2021/09/19 00:21:21;;;;;;;13.00;11.55;;;15.40;79.00;;;;;;6246893;28;20510;-80
2021/09/19 00:24:23;;;;;;;12.13;10.93;;;15.40;78.90;;;;;;6249063;28;20800;-79
2021/09/19 00:27:25;;;;;;;12.73;11.48;;;15.40;78.70;;;;;;6248733;28;20416;-80
2021/09/19 00:30:27;;;;;;;11.98;10.77;;;15.40;79.20;;;;;;6248621;28;20478;-80
2021/09/19 00:33:30;;;;;;;12.85;11.55;;;15.40;79.20;;;;;;6247392;28;20439;-80
2021/09/19 00:36:32;;;;;;;12.52;11.32;;;15.40;79.90;;;;;;6249175;28;20435;-80
2021/09/19 00:39:34;;;;;;;12.73;11.53;;;15.40;79.50;;;;;;6248485;28;20566;-80
2021/09/19 00:42:36;;;;;;;15.50;12.25;;;15.50;79.40;;;;;;6247747;28;20494;-80
2021/09/19 00:45:38;;;;;;;13.15;11.82;;;15.40;79.30;;;;;;6247698;28;20445;-80
2021/09/19 00:48:41;;;;;;;13.20;12.00;;;15.30;79.30;;;;;;6247573;28;20577;-80
2021/09/19 00:51:44;;;;;;;14.35;12.00;;;15.40;79.60;;;;;;6249219;28;20513;-80
2021/09/19 00:54:49;;;;;;;12.23;11.02;;;15.40;79.40;;;;;;6249644;28;20449;-80
2021/09/19 00:57:53;;;;;;;12.88;11.52;;;15.40;79.20;;;;;;6249133;28;20494;-81
2021/09/19 01:00:56;;;;;;;12.30;11.10;;;15.40;79.00;;;;;;6248770;28;20968;-80
2021/09/19 01:04:01;;;;;;;21.08;12.35;;;15.40;79.00;;;;;;6249752;28;20569;-80
2021/09/19 01:07:03;;;;;;;13.07;11.88;;;15.40;78.90;;;;;;6247604;28;20415;-80
2021/09/19 01:10:06;;;;;;;13.70;11.90;;;15.40;78.90;;;;;;6246283;28;20446;-79
2021/09/19 01:13:08;;;;;;;13.25;11.85;;;15.40;79.00;;;;;;6246427;28;20553;-80
2021/09/19 01:16:10;;;;;;;11.82;10.73;;;15.40;79.10;;;;;;6246546;28;20928;-80
2021/09/19 01:19:17;;;;;;;13.07;11.80;;;15.40;79.10;;;;;;6245729;28;20823;-80
2021/09/19 01:22:19;;;;;;;12.63;11.30;;;15.40;79.00;;;;;;6246260;28;20414;-80
2021/09/19 01:25:22;;;;;;;13.70;12.25;;;15.40;78.90;;;;;;6246700;28;20414;-80
2021/09/19 01:28:24;;;;;;;13.25;11.95;;;15.40;79.00;;;;;;6246902;28;20441;-80
2021/09/19 01:31:27;;;;;;;12.77;11.63;;;15.40;78.90;;;;;;6245932;28;20500;-79
2021/09/19 01:34:29;;;;;;;13.63;12.23;;;15.40;78.90;;;;;;6246094;28;20458;-79
2021/09/19 01:37:31;;;;;;;13.13;11.73;;;15.40;79.60;;;;;;6246025;28;20565;-81
2021/09/19 01:40:35;;;;;;;14.07;12.60;;;15.40;78.90;;;;;;6246084;28;20467;-81
2021/09/19 01:43:37;;;;;;;13.40;12.10;;;15.40;78.90;;;;;;6246770;28;20470;-80
2021/09/19 01:46:39;;;;;;;15.70;12.68;;;15.30;78.90;;;;;;6245608;28;20553;-79
2021/09/19 01:49:45;;;;;;;13.65;11.80;;;15.40;79.10;;;;;;6245645;28;20447;-80
2021/09/19 01:52:47;;;;;;;12.65;11.52;;;15.30;79.20;;;;;;6245899;28;20430;-79
2021/09/19 01:55:50;;;;;;;14.47;12.97;;;15.30;79.40;;;;;;6246053;28;20435;-80
2021/09/19 01:58:54;;;;;;;13.80;12.50;;;15.20;79.50;;;;;;6245379;28;20422;-80
2021/09/19 02:01:57;;;;;;;13.88;12.48;;;15.20;79.60;;;;;;6245424;28;20444;-80
2021/09/19 02:04:58;;;;;;;13.63;12.32;;;15.20;79.80;;;;;;6246002;28;20417;-80
2021/09/19 02:08:00;;;;;;;12.33;11.17;;;15.10;79.90;;;;;;6245935;28;20983;-81
2021/09/19 02:11:04;;;;;;;12.48;11.38;;;15.10;80.10;;;;;;6245734;28;20484;-80
2021/09/19 02:14:06;;;;;;;13.03;11.80;;;15.00;80.10;;;;;;6246312;28;20409;-80
2021/09/19 02:17:08;;;;;;;14.25;12.85;;;15.00;80.40;;;;;;6245761;28;20928;-80
2021/09/19 02:20:13;;;;;;;12.77;11.27;;;15.00;80.60;;;;;;6245633;28;20485;-80
2021/09/19 02:23:15;;;;;;;12.55;11.27;;;14.90;80.60;;;;;;6245514;28;20770;-80
2021/09/19 02:26:19;;;;;;;14.00;12.47;;;14.90;80.60;;;;;;6245911;28;20415;-80
2021/09/19 02:29:20;;;;;;;12.07;10.53;;;14.90;80.90;;;;;;6245779;28;20438;-80
2021/09/19 02:32:22;;;;;;;12.10;10.90;;;14.80;80.90;;;;;;6245898;28;20431;-80
2021/09/19 02:35:24;;;;;;;13.37;12.07;;;14.80;81.00;;;;;;6245141;28;20494;-80
2021/09/19 02:38:26;;;;;;;12.10;10.90;;;14.80;81.10;;;;;;6246146;28;20461;-80
2021/09/19 02:41:29;;;;;;;11.82;10.70;;;14.70;81.10;;;;;;6245542;28;21024;-80
2021/09/19 02:44:31;;;;;;;11.55;10.30;;;14.70;81.20;;;;;;6246224;28;20474;-79
2021/09/19 02:47:33;;;;;;;11.93;10.77;;;14.70;81.60;;;;;;6245350;28;20490;-80
2021/09/19 02:50:35;;;;;;;11.65;10.55;;;14.70;81.30;;;;;;6245091;28;20504;-80
2021/09/19 02:53:37;;;;;;;14.70;10.50;;;14.80;81.90;;;;;;6245174;28;20501;-80
2021/09/19 02:56:40;;;;;;;11.50;10.43;;;14.70;81.00;;;;;;6246038;28;20474;-80
2021/09/19 02:59:42;;;;;;;11.88;10.05;;;14.70;81.30;;;;;;6250067;28;20505;-80
2021/09/19 03:02:44;;;;;;;11.55;8.80;;;14.70;81.10;;;;;;6249385;28;20876;-79
2021/09/19 03:05:46;;;;;;;9.90;8.90;;;14.70;80.80;;;;;;6250029;28;20422;-80
2021/09/19 03:08:48;;;;;;;11.13;9.82;;;14.80;80.80;;;;;;6249314;28;20868;-79
2021/09/19 03:11:51;;;;;;;9.60;8.70;;;14.70;80.80;;;;;;6249657;28;20484;-79
2021/09/19 03:14:53;;;;;;;11.00;9.55;;;14.60;81.00;;;;;;6248867;28;20498;-80
2021/09/19 03:17:55;;;;;;;11.95;8.80;;;14.50;81.00;;;;;;6249201;28;20577;-79
2021/09/19 03:20:57;;;;;;;10.35;9.35;;;14.40;81.20;;;;;;6248927;28;20781;-80
2021/09/19 03:23:59;;;;;;;10.48;8.23;;;14.40;81.50;;;;;;6249455;28;20924;-80
2021/09/19 03:27:02;;;;;;;11.50;9.23;;;14.40;81.60;;;;;;6248703;28;20501;-79
2021/09/19 03:30:06;;;;;;;9.90;8.90;;;14.30;81.70;;;;;;6248598;28;20439;-79
2021/09/19 03:33:08;;;;;;;12.25;8.45;;;14.30;81.90;;;;;;6248230;28;20415;-80
2021/09/19 03:36:10;;;;;;;11.18;8.73;;;14.30;81.80;;;;;;6248720;28;20581;-80
2021/09/19 03:39:11;;;;;;;9.37;8.47;;;14.20;81.70;;;;;;6248577;28;20497;-80
2021/09/19 03:42:15;;;;;;;8.80;7.88;;;14.20;81.90;;;;;;6248878;28;20442;-80
2021/09/19 03:45:17;;;;;;;9.52;8.52;;;14.30;81.90;;;;;;6248922;28;20439;-80
2021/09/19 03:48:19;;;;;;;8.70;7.90;;;14.30;81.60;;;;;;6248905;28;20886;-80
2021/09/19 03:51:21;;;;;;;8.65;7.80;;;14.20;81.70;;;;;;6247623;28;20548;-80
2021/09/19 03:54:23;;;;;;;9.47;8.50;;;14.20;81.60;;;;;;6248118;28;20926;-80
2021/09/19 03:57:26;;;;;;;8.52;7.72;;;14.20;81.60;;;;;;6248239;28;20421;-80
2021/09/19 04:00:28;;;;;;;8.50;7.78;;;14.20;81.70;;;;;;6248764;28;20435;-80
2021/09/19 04:03:30;;;;;;;7.97;7.18;;;14.10;81.90;;;;;;6248939;28;20492;-80
2021/09/19 04:06:32;;;;;;;8.30;7.47;;;14.30;81.60;;;;;;6248739;28;20461;-80
2021/09/19 04:09:34;;;;;;;7.38;6.68;;;14.00;81.60;;;;;;6247810;28;20915;-80
2021/09/19 04:12:38;;;;;;;7.72;6.30;;;14.00;82.00;;;;;;6248201;28;20520;-80
2021/09/19 04:15:41;;;;;;;7.80;7.00;;;14.00;81.60;;;;;;6248533;28;20585;-79
2021/09/19 04:18:43;;;;;;;7.50;6.80;;;13.90;81.60;;;;;;6247578;28;20424;-79
2021/09/19 04:21:45;;;;;;;9.38;7.03;;;14.00;82.00;;;;;;6247952;28;20497;-80
2021/09/19 04:24:46;;;;;;;7.85;7.13;;;13.90;81.90;;;;;;6247726;28;20909;-80
2021/09/19 04:27:50;;;;;;;7.43;6.72;;;13.80;82.00;;;;;;6248359;28;20525;-80
2021/09/19 04:30:51;;;;;;;8.55;6.43;;;13.70;82.10;;;;;;6246877;28;20504;-80
2021/09/19 04:33:53;;;;;;;7.18;6.57;;;13.70;82.40;;;;;;6247053;28;20445;-80
2021/09/19 04:36:55;;;;;;;7.13;6.22;;;13.60;82.10;;;;;;6247381;28;20541;-78
2021/09/19 04:39:57;;;;;;;7.75;6.05;;;13.70;82.10;;;;;;6246425;28;20524;-78
2021/09/19 04:43:00;;;;;;;6.20;5.60;;;13.60;82.10;;;;;;6245972;28;20441;-78
2021/09/19 04:46:02;;;;;;;6.45;5.75;;;13.70;82.40;;;;;;6245823;28;20977;-78
2021/09/19 04:49:04;;;;;;;6.45;5.20;;;13.70;82.10;;;;;;6245543;28;20415;-79
2021/09/19 04:52:06;;;;;;;7.13;6.45;;;13.60;82.00;;;;;;6246624;28;20480;-78
2021/09/19 04:55:09;;;;;;;7.47;5.63;;;13.70;81.80;;;;;;6245811;28;20493;-78
2021/09/19 04:58:12;;;;;;;6.35;5.85;;;13.70;81.70;;;;;;6245368;28;20937;-78
2021/09/19 05:01:14;;;;;;;6.63;5.93;;;13.80;81.80;;;;;;6245183;28;20441;-77
2021/09/19 05:04:16;;;;;;;5.57;5.00;;;13.70;81.80;;;;;;6245807;28;20514;-79
2021/09/19 05:07:18;;;;;;;5.80;5.20;;;13.70;81.80;;;;;;6245432;28;20894;-78
2021/09/19 05:10:20;;;;;;;5.87;5.27;;;13.70;81.50;;;;;;6245256;28;20788;-78
2021/09/19 05:13:23;;;;;;;5.85;5.25;;;13.70;81.50;;;;;;6245500;28;20442;-78
2021/09/19 05:16:26;;;;;;;6.18;5.57;;;13.70;81.80;;;;;;6245826;28;20912;-78
2021/09/19 05:19:28;;;;;;;5.82;5.00;;;13.70;81.70;;;;;;6244581;28;20972;-78
2021/09/19 05:22:29;;;;;;;7.18;4.75;;;13.70;81.30;;;;;;6245417;28;21052;-78
2021/09/19 05:25:31;;;;;;;6.00;5.40;;;13.70;81.60;;;;;;6245142;28;20415;-78
2021/09/19 05:28:35;;;;;;;5.85;4.97;;;13.70;80.80;;;;;;6244784;28;20799;-78
2021/09/19 05:31:37;;;;;;;6.10;4.63;;;13.90;81.00;;;;;;6245189;28;20489;-78
2021/09/19 05:34:38;;;;;;;4.80;4.40;;;13.80;80.70;;;;;;6248103;28;20443;-77
2021/09/19 05:37:40;;;;;;;5.53;4.97;;;13.90;80.70;;;;;;6246845;28;20481;-78
2021/09/19 05:40:42;;;;;;;7.13;4.55;;;13.90;80.80;;;;;;6247621;28;20887;-78
2021/09/19 05:43:45;;;;;;;4.65;4.25;;;14.00;80.10;;;;;;6247541;28;20430;-78
2021/09/19 05:46:47;;;;;;;5.45;4.60;;;14.10;80.00;;;;;;6246886;28;20494;-78
2021/09/19 05:49:49;;;;;;;6.10;5.10;;;14.10;79.80;;;;;;6250988;28;20901;-78
2021/09/19 05:52:51;;;;;;;5.13;4.63;;;14.10;79.50;;;;;;6262971;28;20518;-77
2021/09/19 05:55:53;;;;;;;4.60;4.07;;;14.30;79.90;;;;;;6272165;28;20520;-78
2021/09/19 05:58:56;;;;;;;4.90;4.50;;;14.30;78.90;;;;;;6270298;28;20451;-79
2021/09/19 06:01:58;;;;;;;5.00;4.53;;;14.40;78.90;;;;;;6272941;28;20545;-79
2021/09/19 06:05:00;;;;;;;4.32;3.92;;;14.50;78.50;;;;;;6273998;28;20906;-80
2021/09/19 06:08:02;;;;;;;5.03;4.20;;;14.60;78.00;;;;;;6274590;28;20917;-80
2021/09/19 06:11:04;;;;;;;5.35;4.40;;;14.70;77.80;;;;;;6273911;28;20974;-80
2021/09/19 06:14:07;;;;;;;4.57;4.03;;;14.80;77.40;;;;;;6274417;28;20560;-79
2021/09/19 06:17:09;;;;;;;5.03;4.20;;;15.00;77.10;;;;;;6273649;28;20401;-79
2021/09/19 06:20:11;;;;;;;5.00;4.27;;;15.10;76.30;;;;;;6265838;28;20809;-79
2021/09/19 06:23:13;;;;;;;6.80;4.60;;;15.20;75.70;;;;;;6273200;28;20548;-80
2021/09/19 06:26:15;;;;;;;5.30;4.38;;;15.30;75.80;;;;;;6274530;28;20495;-78
2021/09/19 06:29:18;;;;;;;5.35;4.15;;;15.50;75.20;;;;;;6273804;28;20439;-79
2021/09/19 06:32:20;;;;;;;4.55;4.15;;;15.70;74.50;;;;;;6278109;28;20491;-79
2021/09/19 06:35:21;;;;;;;5.60;5.00;;;15.70;74.50;;;;;;6279938;28;20496;-78
2021/09/19 06:38:23;;;;;;;6.30;5.75;;;15.80;73.80;;;;;;6279368;28;20452;-79
2021/09/19 06:41:25;;;;;;;6.10;4.93;;;15.90;74.30;;;;;;6278318;28;20508;-79
2021/09/19 06:44:28;;;;;;;7.60;5.72;;;15.90;74.80;;;;;;6279439;28;20523;-78
2021/09/19 06:47:30;;;;;;;5.95;4.90;;;15.90;73.50;;;;;;6280974;28;20899;-79
2021/09/19 06:50:32;;;;;;;5.72;5.13;;;16.00;73.30;;;;;;6268354;28;20492;-80
2021/09/19 06:53:37;;;;;;;5.80;5.25;;;16.00;73.40;;;;;;6273830;28;20875;-78
2021/09/19 06:56:39;;;;;;;7.28;5.55;;;16.00;73.30;;;;;;6278597;28;20433;-79
2021/09/19 06:59:42;;;;;;;5.03;4.63;;;16.00;73.50;;;;;;6278470;28;20427;-78
2021/09/19 07:02:44;;;;;;;6.07;4.85;;;16.10;73.00;;;;;;6278932;28;20849;-79
2021/09/19 07:05:45;;;;;;;6.07;5.10;;;16.20;72.80;;;;;;6278682;28;21152;-79
2021/09/19 07:08:47;;;;;;;5.55;5.00;;;16.40;72.50;;;;;;6277917;28;20877;-79
2021/09/19 07:11:49;;;;;;;5.95;5.18;;;16.50;71.20;;;;;;6279779;28;20500;-79
2021/09/19 07:14:52;;;;;;;5.45;4.95;;;16.70;71.00;;;;;;6280086;28;20892;-80
2021/09/19 07:17:54;;;;;;;5.18;4.70;;;16.80;70.60;;;;;;6278796;28;20409;-79
2021/09/19 07:20:56;;;;;;;5.00;4.50;;;16.90;69.80;;;;;;6263098;28;20487;-79
2021/09/19 07:23:57;;;;;;;4.43;3.90;;;17.00;70.10;;;;;;6255903;28;20438;-80
2021/09/19 07:26:59;;;;;;;3.90;3.58;;;17.30;69.60;;;;;;6253935;28;20487;-79
2021/09/19 07:30:03;;;;;;;4.93;4.25;;;17.70;68.40;;;;;;6253828;28;20894;-79
2021/09/19 07:33:06;;;;;;;4.50;3.97;;;17.90;66.60;;;;;;6252817;28;20522;-79
2021/09/19 07:36:09;;;;;;;4.72;3.75;;;18.00;66.90;;;;;;6254652;28;20435;-79
2021/09/19 07:39:11;;;;;;;4.77;4.27;;;18.10;65.70;;;;;;6253889;28;20497;-79
2021/09/19 07:42:13;;;;;;;4.68;3.55;;;18.10;65.00;;;;;;6252839;28;21076;-79
2021/09/19 07:45:17;;;;;;;4.30;3.88;;;18.00;65.80;;;;;;6252611;28;21008;-80
2021/09/19 07:48:21;;;;;;;5.05;3.90;;;17.90;65.60;;;;;;6254451;28;20527;-79
2021/09/19 07:51:23;;;;;;;4.63;4.13;;;17.80;66.10;;;;;;6261841;28;20464;-79
2021/09/19 07:54:25;;;;;;;4.43;4.03;;;17.80;66.20;;;;;;6253802;28;20430;-79
2021/09/19 07:57:27;;;;;;;4.67;4.27;;;18.00;66.10;;;;;;6253479;28;20496;-79
2021/09/19 08:00:31;;;;;;;3.95;3.55;;;18.10;65.50;;;;;;6253151;28;20519;-79
2021/09/19 08:03:32;;;;;;;3.78;3.47;;;18.20;65.60;;;;;;6254268;28;20977;-79
2021/09/19 08:06:34;;;;;;;4.10;3.70;;;18.30;66.00;;;;;;6252730;28;20420;-79
2021/09/19 08:09:36;;;;;;;5.45;3.80;;;18.60;64.60;;;;;;6252701;28;20880;-79
2021/09/19 08:12:41;;;;;;;4.28;3.88;;;18.70;63.70;;;;;;6253191;28;20461;-78
2021/09/19 08:15:44;;;;;;;3.85;3.55;;;18.90;63.90;;;;;;6257850;28;20431;-77
2021/09/19 08:18:46;;;;;;;3.97;3.63;;;19.00;64.10;;;;;;6269223;28;20517;-78
2021/09/19 08:21:48;;;;;;;5.90;3.67;;;19.20;63.40;;;;;;6266976;28;20977;-78
2021/09/19 08:24:50;;;;;;;4.05;3.65;;;19.50;64.10;;;;;;6251095;28;20899;-79
2021/09/19 08:27:52;;;;;;;4.80;3.47;;;19.60;62.00;;;;;;6251920;28;20427;-78
2021/09/19 08:30:56;;;;;;;4.05;3.22;;;19.80;61.70;;;;;;6251980;28;20482;-79
2021/09/19 08:33:58;;;;;;;4.05;3.65;;;20.10;60.70;;;;;;6252811;28;20454;-78
2021/09/19 08:36:59;;;;;;;4.40;3.20;;;20.20;60.50;;;;;;6251699;28;20469;-79
2021/09/19 08:40:01;;;;;;;4.28;2.95;;;20.30;61.20;;;;;;6261308;28;20433;-78
2021/09/19 08:43:06;;;;;;;6.05;2.70;;;20.40;59.80;;;;;;6273622;28;20449;-78
2021/09/19 08:46:09;;;;;;;3.50;3.17;;;20.40;59.60;;;;;;6258646;28;20494;-78
2021/09/19 08:49:12;;;;;;;3.75;3.20;;;20.40;59.20;;;;;;6256172;28;20486;-78
2021/09/19 08:52:14;;;;;;;3.72;3.00;;;20.40;59.60;;;;;;6274868;28;20511;-78
2021/09/19 08:55:16;;;;;;;3.50;3.20;;;20.60;59.60;;;;;;6270737;28;20491;-78
2021/09/19 08:58:18;;;;;;;6.05;4.32;;;20.70;58.70;;;;;;6259820;28;20933;-78
2021/09/19 09:01:21;;;;;;;3.85;3.42;;;20.70;59.10;;;;;;6261197;28;20500;-78
2021/09/19 09:04:23;;;;;;;4.82;2.75;;;20.70;58.00;;;;;;6255651;28;20513;-78
2021/09/19 09:07:25;;;;;;;2.95;2.65;;;20.60;59.60;;;;;;6261139;28;20431;-78
2021/09/19 09:10:38;;;;;;;3.33;3.03;;;21.10;59.20;;;;;;6270147;28;20954;-78
2021/09/19 09:13:42;;;;;;;2.83;2.63;;;21.40;56.50;;;;;;6249514;28;20411;-78
2021/09/19 09:16:49;;;;;;;7.97;3.03;;;21.50;56.90;;;;;;6256233;28;20430;-78
2021/09/19 09:19:52;;;;;;;5.00;2.78;;;21.80;57.40;;;;;;6261690;28;20941;-78
2021/09/19 09:22:54;;;;;;;4.00;3.00;;;22.00;56.60;;;;;;6265235;28;20532;-78
2021/09/19 09:26:18;;;;;;;6.30;2.80;;;22.30;55.50;;;;;;6271641;28;20460;-80
2021/09/19 09:29:20;;;;;;;5.05;2.65;;;22.50;54.40;;;;;;6262348;28;20421;-79
2021/09/19 09:32:23;;;;;;;3.67;2.58;;;22.70;54.30;;;;;;6272802;28;20455;-80
2021/09/19 09:35:31;;;;;;;4.28;2.63;;;22.80;53.80;;;;;;6273374;28;20460;-78
2021/09/19 09:38:33;;;;;;;3.20;2.90;;;22.90;53.80;;;;;;6273453;28;20417;-79
2021/09/19 09:41:39;;;;;;;3.50;3.20;;;23.10;53.10;;;;;;6273722;28;20441;-80
2021/09/19 09:44:42;;;;;;;2.60;2.40;;;23.20;52.50;;;;;;6275138;28;20433;-79
2021/09/19 09:47:45;;;;;;;3.10;2.30;;;23.20;52.70;;;;;;6274270;28;20447;-79
2021/09/19 09:50:47;;;;;;;3.15;2.85;;;23.50;52.30;;;;;;6260961;28;20957;-80
2021/09/19 09:53:59;;;;;;;3.53;2.92;;;23.70;51.50;;;;;;6270552;28;20413;-79
2021/09/19 09:57:01;;;;;;;3.78;3.13;;;23.70;51.20;;;;;;6273401;28;20412;-80
2021/09/19 10:00:06;;;;;;;4.10;3.03;;;23.80;50.20;;;;;;6273680;28;20483;-80
2021/09/19 10:03:09;;;;;;;4.60;2.67;;;23.30;51.90;;;;;;6275905;28;20532;-81
2021/09/19 10:06:12;;;;;;;4.72;2.67;;;23.60;52.10;;;;;;6277348;28;20500;-79
2021/09/19 10:09:13;;;;;;;5.45;3.08;;;24.10;50.70;;;;;;6277246;28;20429;-79
2021/09/19 10:12:20;;;;;;;4.30;2.55;;;24.40;49.80;;;;;;6279205;28;20483;-78
2021/09/19 10:15:24;;;;;;;3.00;2.60;;;24.70;49.60;;;;;;6277988;28;20428;-78
2021/09/19 10:18:28;;;;;;;3.47;3.17;;;24.70;48.90;;;;;;6276269;28;20891;-79
2021/09/19 10:21:34;;;;;;;6.10;3.75;;;24.50;48.50;;;;;;6260969;28;20787;-78
2021/09/19 10:24:38;;;;;;;3.85;3.25;;;24.40;48.70;;;;;;6277962;28;20802;-78
2021/09/19 10:27:40;;;;;;;3.65;3.08;;;24.40;49.70;;;;;;6278201;28;20425;-78
2021/09/19 10:31:19;;;;;;;3.97;3.58;;;24.60;49.10;;;;;;6277119;28;20471;-78
2021/09/19 10:34:31;;;;;;;7.13;3.83;;;24.50;48.40;;;;;;6276643;28;20417;-78
2021/09/19 10:37:50;;;;;;;3.55;2.65;;;24.30;49.10;;;;;;6277197;28;20520;-78
2021/09/19 10:41:15;;;;;;;3.47;2.28;;;24.50;49.60;;;;;;6277373;28;20439;-78
2021/09/19 10:44:17;;;;;;;3.25;2.83;;;24.50;50.30;;;;;;6277237;28;20436;-78
2021/09/19 10:47:28;;;;;;;3.90;3.47;;;24.40;50.00;;;;;;6278914;28;21011;-79
2021/09/19 10:50:36;;;;;;;3.78;3.47;;;24.20;50.10;;;;;;6267917;28;20498;-79
2021/09/19 10:53:48;;;;;;;3.70;3.40;;;24.30;50.20;;;;;;6274061;28;20417;-79
2021/09/19 10:56:57;;;;;;;3.55;3.20;;;24.20;50.10;;;;;;6276037;28;20461;-79
2021/09/19 11:00:16;;;;;;;4.85;3.35;;;24.30;50.20;;;;;;6274897;28;20841;-78
2021/09/19 11:03:28;;;;;;;5.25;3.30;;;24.50;49.90;;;;;;6273805;28;20413;-78
2021/09/19 11:06:34;;;;;;;4.80;3.65;;;24.90;48.90;;;;;;6274260;28;21222;-79
2021/09/19 11:09:36;;;;;;;3.88;3.45;;;24.80;48.50;;;;;;6273151;28;20913;-78
2021/09/19 11:12:42;;;;;;;3.40;3.10;;;24.90;48.30;;;;;;6273593;28;20575;-79
2021/09/19 11:15:44;;;;;;;4.10;3.60;;;25.20;48.10;;;;;;6273810;28;20429;-79
2021/09/19 11:18:48;;;;;;;5.60;3.65;;;25.60;46.90;;;;;;6256107;28;20506;-78
2021/09/19 11:21:51;;;;;;;6.63;3.97;;;26.20;45.90;;;;;;6259832;28;20496;-78
2021/09/19 11:24:53;;;;;;;4.82;4.10;;;26.60;46.20;;;;;;6271914;28;20955;-79
2021/09/19 11:27:55;;;;;;;11.68;7.63;;;26.90;43.90;;;;;;6272377;28;20506;-79
2021/09/19 11:30:58;;;;;;;10.77;6.07;;;27.10;45.60;;;;;;6272016;28;20414;-79
2021/09/19 11:34:02;;;;;;;6.00;4.50;;;27.10;43.50;;;;;;6277089;28;20433;-80
2021/09/19 11:37:06;;;;;;;7.05;4.70;;;27.20;43.70;;;;;;6277919;28;20507;-80
2021/09/19 11:40:10;;;;;;;4.63;4.15;;;27.20;43.40;;;;;;6279004;28;20489;-80
2021/09/19 11:43:14;;;;;;;8.70;4.05;;;27.10;42.90;;;;;;6278754;28;20509;-79
2021/09/19 11:46:18;;;;;;;5.80;3.83;;;27.00;42.10;;;;;;6259543;28;20464;-79
2021/09/19 11:49:20;;;;;;;7.70;5.30;;;27.00;43.50;;;;;;6248938;28;20504;-79
2021/09/19 11:52:24;;;;;;;6.78;4.30;;;26.80;44.00;;;;;;6270954;28;20433;-79
2021/09/19 11:55:26;;;;;;;6.70;5.20;;;26.60;44.20;;;;;;6278726;28;20437;-79
2021/09/19 11:58:30;;;;;;;5.10;3.78;;;26.50;43.90;;;;;;6279034;28;20517;-79
2021/09/19 12:01:32;;;;;;;4.60;3.73;;;26.80;43.00;;;;;;6278242;28;20541;-79
2021/09/19 12:04:34;;;;;;;3.90;3.53;;;27.00;43.00;;;;;;6277712;28;20440;-80
2021/09/19 12:07:37;;;;;;;4.32;3.97;;;27.10;42.50;;;;;;6278235;28;20449;-80
2021/09/19 12:10:39;;;;;;;4.85;4.35;;;27.20;42.70;;;;;;6277428;28;20410;-80
2021/09/19 12:13:48;;;;;;;4.80;4.10;;;27.50;41.70;;;;;;6276795;28;20523;-79
2021/09/19 12:16:58;;;;;;;6.15;3.33;;;27.80;41.10;;;;;;6277853;28;20452;-79
2021/09/19 12:20:02;;;;;;;5.00;3.60;;;27.90;41.10;;;;;;6268119;28;20461;-80
2021/09/19 12:23:16;;;;;;;5.78;4.50;;;27.80;40.70;;;;;;6261087;28;20435;-80
2021/09/19 12:26:21;;;;;;;3.22;2.92;;;27.60;41.50;;;;;;6252477;28;20425;-80
2021/09/19 12:29:23;;;;;;;3.72;3.42;;;27.50;42.40;;;;;;6248599;28;20900;-78
2021/09/19 12:32:33;;;;;;;4.15;3.75;;;27.40;42.40;;;;;;6246872;28;21019;-78
2021/09/19 12:35:35;;;;;;;4.70;4.05;;;27.10;41.80;;;;;;6246781;28;20422;-78
2021/09/19 12:38:45;;;;;;;4.35;4.00;;;26.90;42.60;;;;;;6244893;28;20434;-78
2021/09/19 12:41:48;;;;;;;4.28;3.97;;;26.70;42.90;;;;;;6245422;28;20490;-78
2021/09/19 12:44:50;;;;;;;4.05;3.65;;;26.50;43.10;;;;;;6245468;28;20564;-78
2021/09/19 12:47:53;;;;;;;4.97;4.25;;;26.30;43.70;;;;;;6246193;28;20923;-78
2021/09/19 12:50:57;;;;;;;5.50;4.07;;;26.20;43.80;;;;;;6253612;28;20495;-78
2021/09/19 12:54:00;;;;;;;4.63;3.90;;;26.20;43.80;;;;;;6268363;28;20436;-78
2021/09/19 12:57:02;;;;;;;3.65;3.35;;;26.10;43.40;;;;;;6269454;28;20500;-78
2021/09/19 13:00:05;;;;;;;6.33;4.80;;;26.10;43.70;;;;;;6269685;28;20582;-78
2021/09/19 13:03:08;;;;;;;4.80;4.40;;;26.10;43.50;;;;;;6270735;28;20424;-79
2021/09/19 13:06:11;;;;;;;4.38;4.05;;;26.20;42.50;;;;;;6269871;28;20416;-78
2021/09/19 13:09:14;;;;;;;4.18;3.78;;;26.40;42.70;;;;;;6270004;28;20842;-78
2021/09/19 13:12:16;;;;;;;5.38;4.88;;;26.50;43.00;;;;;;6269638;28;20437;-79
2021/09/19 13:15:20;;;;;;;4.85;4.45;;;26.40;42.10;;;;;;6270790;28;20496;-78
2021/09/19 13:18:21;;;;;;;4.25;3.95;;;26.30;42.10;;;;;;6271600;28;20440;-78
2021/09/19 13:21:23;;;;;;;3.80;3.50;;;26.00;43.70;;;;;;6265394;28;20493;-78
2021/09/19 13:24:26;;;;;;;5.60;3.47;;;25.80;45.60;;;;;;6246392;28;20495;-77
2021/09/19 13:27:28;;;;;;;3.75;3.35;;;25.40;46.80;;;;;;6244856;28;20492;-78
2021/09/19 13:30:30;;;;;;;3.35;3.08;;;25.10;47.90;;;;;;6243752;28;20843;-77
2021/09/19 13:33:32;;;;;;;4.55;3.65;;;24.90;48.20;;;;;;6244196;28;20415;-77
2021/09/19 13:36:34;;;;;;;3.30;3.00;;;24.70;48.70;;;;;;6244092;28;20481;-77
2021/09/19 13:39:37;;;;;;;3.40;3.10;;;24.60;49.50;;;;;;6244456;28;20981;-77
2021/09/19 13:42:40;;;;;;;3.38;2.83;;;24.50;49.70;;;;;;6245111;28;20502;-77
2021/09/19 13:45:42;;;;;;;4.82;2.97;;;24.40;50.00;;;;;;6244636;28;20501;-77
2021/09/19 13:48:45;;;;;;;7.70;3.45;;;24.40;49.90;;;;;;6244023;28;20453;-77
2021/09/19 13:51:47;;;;;;;3.08;2.83;;;24.40;50.10;;;;;;6256910;28;20440;-77
2021/09/19 13:54:50;;;;;;;4.00;3.70;;;24.30;52.40;;;;;;6268734;28;20418;-77
2021/09/19 13:57:52;;;;;;;3.70;3.30;;;24.10;50.50;;;;;;6268026;28;20409;-77
2021/09/19 14:00:54;;;;;;;4.33;3.93;;;23.90;51.50;;;;;;6267919;28;21009;-77
2021/09/19 14:03:55;;;;;;;3.38;3.10;;;23.80;52.10;;;;;;6268494;28;20482;-77
2021/09/19 14:06:57;;;;;;;3.50;3.20;;;23.60;52.70;;;;;;6268419;28;20432;-77
2021/09/19 14:10:01;;;;;;;3.25;3.05;;;23.40;52.50;;;;;;6267545;28;20444;-77
2021/09/19 14:13:03;;;;;;;4.78;3.38;;;23.30;52.90;;;;;;6268000;28;20487;-77
2021/09/19 14:16:05;;;;;;;3.78;3.45;;;23.20;52.20;;;;;;6268471;28;20425;-77
2021/09/19 14:19:07;;;;;;;3.73;3.43;;;23.10;53.60;;;;;;6260811;28;20423;-77
2021/09/19 14:22:08;;;;;;;4.57;3.97;;;23.00;52.60;;;;;;6258759;28;20893;-76
2021/09/19 14:25:13;;;;;;;4.35;3.78;;;23.00;53.30;;;;;;6267806;28;20484;-77
2021/09/19 14:28:15;;;;;;;4.00;3.30;;;22.90;54.00;;;;;;6268391;28;20519;-77
2021/09/19 14:31:17;;;;;;;3.78;3.47;;;22.90;55.90;;;;;;6266830;28;20895;-76
2021/09/19 14:34:19;;;;;;;4.78;3.50;;;22.90;54.60;;;;;;6269316;28;20420;-77
2021/09/19 14:37:21;;;;;;;4.53;3.92;;;22.90;56.10;;;;;;6267631;28;20514;-77
2021/09/19 14:40:24;;;;;;;4.25;3.85;;;23.00;58.00;;;;;;6268172;28;20440;-77
2021/09/19 14:43:26;;;;;;;4.25;3.90;;;23.00;57.90;;;;;;6267529;28;20468;-77
2021/09/19 14:46:30;;;;;;;3.90;3.60;;;22.90;58.50;;;;;;6267795;28;20418;-78
2021/09/19 14:49:32;;;;;;;4.35;3.60;;;23.00;57.90;;;;;;6259624;28;21046;-78
2021/09/19 14:52:33;;;;;;;4.32;3.92;;;23.00;57.00;;;;;;6261596;28;20437;-77
2021/09/19 14:55:37;;;;;;;4.23;3.83;;;23.10;57.60;;;;;;6272811;28;20799;-78
2021/09/19 14:58:38;;;;;;;4.35;3.95;;;23.20;57.50;;;;;;6271963;28;20478;-77
2021/09/19 15:01:40;;;;;;;4.20;3.75;;;23.20;57.50;;;;;;6272259;28;20467;-77
2021/09/19 15:04:43;;;;;;;4.97;3.95;;;23.20;56.90;;;;;;6271797;28;20537;-78
2021/09/19 15:07:45;;;;;;;4.50;4.10;;;23.30;57.40;;;;;;6272603;28;20926;-77
2021/09/19 15:10:48;;;;;;;4.70;4.30;;;23.40;56.50;;;;;;6271082;28;21279;-77
2021/09/19 15:13:50;;;;;;;4.85;4.35;;;23.40;55.90;;;;;;6272125;28;20467;-77
2021/09/19 15:16:51;;;;;;;5.05;4.55;;;23.30;56.50;;;;;;6271839;28;20478;-77
2021/09/19 15:19:53;;;;;;;5.40;4.55;;;23.30;56.70;;;;;;6264353;28;20550;-77
2021/09/19 15:22:55;;;;;;;6.77;4.40;;;23.40;56.20;;;;;;6243529;28;20475;-77
2021/09/19 15:25:58;;;;;;;4.90;4.45;;;23.40;55.60;;;;;;6222875;28;20896;-77
2021/09/19 15:29:01;;;;;;;5.93;5.32;;;23.50;56.00;;;;;;6222032;28;20488;-77
2021/09/19 15:32:03;;;;;;;5.18;4.68;;;23.60;54.70;;;;;;6222566;28;20503;-77
2021/09/19 15:35:06;;;;;;;6.00;4.90;;;23.60;55.20;;;;;;6222141;28;20503;-77
2021/09/19 15:38:08;;;;;;;5.43;4.87;;;23.60;56.00;;;;;;6221878;28;21094;-77
2021/09/19 15:41:12;;;;;;;5.70;5.10;;;23.60;55.40;;;;;;6222138;28;20500;-77
2021/09/19 15:44:14;;;;;;;4.85;4.45;;;23.60;54.90;;;;;;6222795;28;20436;-77
2021/09/19 15:47:19;;;;;;;5.97;5.37;;;23.50;54.70;;;;;;6221951;28;20440;-77